Latest Weather Observations for Tasman Island

IDT60801

Issued at 8:02 pm EST Saturday 27 August 2016 (issued every 30 minutes, with the page automatically refreshed every 10 minutes)

About weather observations | Map of weather stations | Latest weather observations for TAS | Other Formats
Station Details ID: 094155 Name: TASMAN ISLAND Lat: -43.24 Lon: 148.00 Height: 240.0 m
Data from the previous 72 hours. | See also: Recent months at Tasman Island
Date/Time
EST
Temp
°C
App
Temp
°C
Dew
Point
°C
Rel
Hum
%
Delta-T
°C
Wind Press
QNH
hPa
Press
MSL
hPa
Rain since
9am
mm
Dir  Spd
km/h
Gust
km/h
Spd
kts
Gust
kts
27/08:00pm 9.8 0.1 3.1 63 2.9 NW 43 57 23 31 1005.3 1005.6 0.0
27/07:30pm 10.0 2.2 2.6 60 3.2 NW 33 57 18 31 1006.1 1006.4 0.0
27/07:00pm 10.3 2.5 2.7 59 3.3 NW 33 56 18 30 1006.2 1006.5 0.0
27/06:40pm 10.5 2.4 3.1 60 3.3 NW 35 56 19 30 1006.4 1006.7 0.0
27/06:30pm 10.4 2.7 3.2 61 3.2 NW 33 44 18 24 1006.5 1006.8 0.0
27/06:00pm 10.9 2.8 3.2 59 3.4 WNW 35 50 19 27 1006.7 1007.0 0.0
27/05:33pm 11.1 4.2 2.7 56 3.7 WNW 28 52 15 28 1006.6 1006.9 0.0
27/05:30pm 11.1 5.0 2.9 57 3.6 NW 24 39 13 21 1006.7 1007.0 0.0
27/05:08pm 11.1 4.0 3.6 60 3.4 NW 30 50 16 27 1006.7 1007.0 0.0
27/05:00pm 11.2 3.5 3.3 58 3.5 NW 33 48 18 26 1006.5 1006.8 0.0
27/04:30pm 11.3 4.2 3.3 58 3.6 NW 30 61 16 33 1006.6 1006.9 0.0
27/04:16pm 11.4 3.8 3.9 60 3.4 NW 33 50 18 27 1006.6 1006.9 0.0
27/04:00pm 11.6 6.5 4.1 60 3.4 WNW 20 35 11 19 1006.7 1007.0 0.0
27/03:30pm 11.8 4.1 3.6 57 3.7 WNW 33 46 18 25 1006.5 1006.8 0.0
27/03:00pm 11.9 3.4 3.4 56 3.8 WNW 37 50 20 27 1006.7 1007.0 0.0
27/02:32pm 11.8 3.4 3.6 57 3.7 NW 37 57 20 31 1006.7 1007.0 0.0
27/02:30pm 11.7 3.3 3.7 58 3.6 NW 37 54 20 29 1006.6 1006.9 0.0
27/02:09pm 11.6 1.8 3.6 58 3.6 NW 44 63 24 34 1006.6 1006.9 0.0
27/02:00pm 11.5 1.4 3.5 58 3.6 NW 46 63 25 34 1006.6 1006.9 0.0
27/01:30pm 11.3 2.1 3.6 59 3.5 NW 41 57 22 31 1006.9 1007.2 0.0
27/01:13pm 11.4 2.6 3.7 59 3.5 NW 39 61 21 33 1007.1 1007.4 0.0
27/01:00pm 11.3 2.9 3.6 59 3.5 NW 37 52 20 28 1007.5 1007.8 0.0
27/12:41pm 11.2 3.1 3.5 59 3.4 NW 35 56 19 30 1007.7 1008.0 0.0
27/12:30pm 11.1 3.1 3.6 60 3.4 NW 35 48 19 26 1008.0 1008.3 0.0
27/12:00pm 10.9 2.9 3.7 61 3.2 WNW 35 48 19 26 1008.3 1008.6 0.0
27/11:31am 11.1 1.3 3.4 59 3.4 NW 44 65 24 35 1008.3 1008.6 0.0
27/11:30am 11.1 0.9 3.4 59 3.4 NW 46 65 25 35 1008.3 1008.6 0.0
27/11:00am 11.4 3.7 3.2 57 3.7 WNW 33 54 18 29 1008.9 1009.2 0.0
27/10:50am 11.5 4.8 3.8 59 3.5 WNW 28 48 15 26 1008.9 1009.2 0.0
27/10:30am 11.0 4.3 3.8 61 3.2 NW 28 44 15 24 1009.2 1009.5 0.0
27/10:00am 11.1 3.0 3.4 59 3.4 NW 35 59 19 32 1009.3 1009.6 0.0
27/09:30am 10.5 3.4 3.8 63 3.0 WNW 30 48 16 26 1009.7 1010.1 0.0
27/09:27am 10.2 3.1 3.5 63 3.0 NW 30 48 16 26 1009.7 1010.1 0.0
27/09:00am 10.5 4.2 3.5 62 3.1 WNW 26 41 14 22 1010.1 1010.4 0.0
27/08:30am 10.0 3.2 3.1 62 3.0 WNW 28 59 15 32 1010.2 1010.5 0.0
27/08:27am 9.9 3.1 3.2 63 2.9 WNW 28 52 15 28 1010.2 1010.5 0.0
27/08:00am 9.7 2.5 3.2 64 2.9 WNW 30 46 16 25 1010.4 1010.7 0.0
27/07:34am 9.2 1.1 3.4 67 2.5 WNW 35 57 19 31 1009.8 1010.2 0.0
27/07:30am 9.2 1.1 3.4 67 2.5 WNW 35 52 19 28 1009.7 1010.1 0.0
27/07:00am 9.1 1.0 3.1 66 2.6 WNW 35 54 19 29 1009.7 1010.1 0.0
27/06:35am 8.7 0.9 2.9 67 2.5 WNW 33 52 18 28 1010.2 1010.5 0.0
27/06:30am 8.8 0.2 2.8 66 2.6 NW 37 52 20 28 1010.1 1010.4 0.0
27/06:00am 8.8 2.3 2.8 66 2.6 WNW 26 46 14 25 1010.2 1010.5 0.0
27/05:32am 9.2 1.9 2.5 63 2.9 WNW 30 48 16 26 1010.3 1010.6 0.0
27/05:30am 9.1 1.4 2.4 63 2.9 NW 32 48 17 26 1010.3 1010.6 0.0
27/05:00am 8.5 2.8 2.7 67 2.5 NNW 22 33 12 18 1009.9 1010.3 0.0
27/04:30am 8.9 2.1 2.9 66 2.6 NW 28 43 15 23 1009.9 1010.3 0.0
27/04:00am 7.7 3.0 3.0 72 2.0 NNW 17 28 9 15 1010.7 1011.0 0.0
27/03:30am 8.5 3.5 3.4 70 2.2 WNW 19 32 10 17 1010.9 1011.2 0.0
27/03:00am 8.3 2.7 3.4 71 2.1 NW 22 32 12 17 1011.3 1011.6 0.0
27/02:30am 8.3 5.5 3.2 70 2.2 WNW 7 20 4 11 1011.1 1011.4 0.0
27/02:00am 8.7 5.9 2.9 67 2.5 WNW 7 28 4 15 1011.1 1011.4 0.0
27/01:30am 9.7 4.9 2.6 61 3.1 W 17 35 9 19 1011.2 1011.5 0.0
27/01:00am 9.6 1.4 2.7 62 3.0 NW 35 50 19 27 1010.6 1010.9 0.0
27/12:30am 9.4 3.3 2.9 64 2.8 WNW 24 44 13 24 1011.0 1011.3 0.0
27/12:00am 9.8 3.4 3.3 64 2.9 WNW 26 44 14 24 1011.1 1011.4 0.0
 
Date/Time
EST
Temp
°C
App
Temp
°C
Dew
Point
°C
Rel
Hum
%
Delta-T
°C
Wind Press
QNH
hPa
Press
MSL
hPa
Rain since
9am
mm
Dir  Spd
km/h
Gust
km/h
Spd
kts
Gust
kts
26/11:41pm 9.7 3.0 3.7 66 2.7 WNW 28 46 15 25 1011.4 1011.7 0.0
26/11:30pm 9.5 3.2 3.7 67 2.6 WNW 26 43 14 23 1011.5 1011.8 0.0
26/11:00pm 9.5 2.9 4.3 70 2.3 NW 28 41 15 22 1011.7 1012.0 0.0
26/10:30pm 9.6 4.6 4.4 70 2.3 NW 20 43 11 23 1011.8 1012.1 0.0
26/10:00pm 9.7 4.7 4.5 70 2.3 NW 20 35 11 19 1012.0 1012.3 0.0
26/09:30pm 9.8 6.8 4.2 68 2.5 WNW 9 33 5 18 1011.8 1012.1 0.0
26/09:00pm 10.0 4.2 4.2 67 2.6 NW 24 46 13 25 1011.8 1012.1 0.0
26/08:30pm 9.9 5.8 4.1 67 2.6 WNW 15 33 8 18 1011.7 1012.0 0.0
26/08:00pm 10.0 5.2 4.4 68 2.5 WNW 19 41 10 22 1011.8 1012.1 0.0
26/07:30pm 10.0 4.2 4.2 67 2.6 WNW 24 33 13 18 1011.7 1012.0 0.0
26/07:00pm 9.8 5.4 4.6 70 2.4 WNW 17 33 9 18 1011.8 1012.1 0.0
26/06:30pm 10.0 5.9 4.6 69 2.4 WNW 15 28 8 15 1011.8 1012.1 0.0
26/06:00pm 10.4 6.3 4.3 66 2.8 WNW 15 33 8 18 1011.4 1011.7 0.0
26/05:30pm 10.5 5.6 4.2 65 2.8 NW 19 32 10 17 1011.2 1011.5 0.0
26/05:00pm 10.8 6.4 4.7 66 2.8 NW 17 32 9 17 1011.0 1011.3 0.0
26/04:30pm 10.8 7.5 4.5 65 2.9 WNW 11 26 6 14 1011.0 1011.3 0.0
26/04:00pm 11.1 7.7 4.1 62 3.2 NW 11 35 6 19 1010.7 1011.0 0.0
26/03:30pm 11.5 7.7 4.0 60 3.4 WNW 13 30 7 16 1010.6 1010.9 0.0
26/03:00pm 11.6 7.8 4.1 60 3.4 WNW 13 32 7 17 1010.6 1010.9 0.0
26/02:30pm 11.4 8.7 3.9 60 3.4 WSW 7 28 4 15 1010.6 1010.9 0.0
26/02:00pm 12.0 9.0 4.0 58 3.6 W 9 30 5 16 1010.7 1011.0 0.0
26/01:30pm 11.3 8.3 4.1 61 3.3 W 9 35 5 19 1010.8 1011.1 0.0
26/01:00pm 11.3 8.0 4.3 62 3.2 W 11 30 6 16 1011.0 1011.3 0.0
26/12:30pm 10.5 7.9 4.2 65 2.8 W 7 26 4 14 1011.3 1011.6 0.0
26/12:00pm 10.5 7.6 4.9 68 2.6 W 9 35 5 19 1011.4 1011.7 0.0
26/11:30am 9.8 6.7 3.8 66 2.7 W 9 24 5 13 1011.7 1012.0 0.0
26/11:00am 10.2 6.8 3.9 65 2.8 W 11 32 6 17 1011.9 1012.2 0.0
26/10:30am 9.3 4.1 3.3 66 2.6 WNW 20 35 11 19 1012.1 1012.4 0.0
26/10:00am 8.8 2.4 3.0 67 2.5 WNW 26 46 14 25 1012.1 1012.4 0.0
26/09:35am 8.4 1.5 2.4 66 2.5 WNW 28 46 15 25 1012.0 1012.3 0.0
26/09:30am 8.4 1.9 2.4 66 2.5 WNW 26 46 14 25 1012.1 1012.4 0.0
26/09:00am 8.0 1.1 2.3 67 2.4 WNW 28 43 15 23 1012.2 1012.5 -
26/08:30am 7.4 0.8 2.1 69 2.2 WNW 26 43 14 23 1012.1 1012.4 -
26/08:00am 6.9 1.5 2.2 72 2.0 WNW 20 44 11 24 1012.2 1012.5 -
26/07:30am 6.5 2.4 2.2 74 1.8 WNW 13 39 7 21 1012.2 1012.5 -
26/07:00am 6.3 1.0 2.0 74 1.8 WNW 19 41 10 22 1012.0 1012.3 -
26/06:30am 6.1 2.8 2.4 77 1.5 W 9 28 5 15 1011.9 1012.2 -
26/06:00am 6.0 2.7 2.3 77 1.5 W 9 26 5 14 1011.8 1012.1 -
26/05:30am 5.9 2.1 2.0 76 1.6 WNW 11 26 6 14 1011.9 1012.2 -
26/05:00am 5.7 2.7 2.0 77 1.5 WSW 7 22 4 12 1011.7 1012.0 -
26/04:30am 5.9 1.4 2.0 76 1.6 WNW 15 33 8 18 1011.5 1011.8 -
26/04:00am 5.9 2.5 1.8 75 1.7 WNW 9 26 5 14 1011.5 1011.8 -
26/03:30am 5.8 1.2 1.5 74 1.7 NW 15 35 8 19 1011.5 1011.8 -
26/03:00am 5.8 2.4 1.7 75 1.7 W 9 28 5 15 1011.5 1011.8 0.0
26/02:30am 5.9 2.1 2.0 76 1.6 W 11 33 6 18 1011.6 1011.9 -
26/02:00am 5.8 2.4 1.7 75 1.7 WNW 9 30 5 16 1011.9 1012.2 -
26/01:30am 5.8 2.0 1.9 76 1.6 W 11 30 6 16 1012.2 1012.5 -
26/01:00am 5.9 2.5 1.8 75 1.7 WNW 9 26 5 14 1012.2 1012.5 -
26/12:30am 5.8 2.0 1.9 76 1.6 WNW 11 30 6 16 1012.3 1012.6 -
26/12:00am 5.9 2.5 2.0 76 1.6 NW 9 28 5 15 1012.4 1012.7 -
 
Date/Time
EST
Temp
°C
App
Temp
°C
Dew
Point
°C
Rel
Hum
%
Delta-T
°C
Wind Press
QNH
hPa
Press
MSL
hPa
Rain since
9am
mm
Dir  Spd
km/h
Gust
km/h
Spd
kts
Gust
kts
25/11:30pm 6.0 1.1 2.3 77 1.5 NW 17 33 9 18 1012.3 1012.6 -
25/11:00pm 6.2 1.4 2.5 77 1.5 NW 17 35 9 19 1012.6 1012.9 -
25/10:30pm 6.7 3.7 1.8 71 2.0 NNW 7 26 4 14 1012.4 1012.7 -
25/10:00pm 6.7 3.3 2.0 72 1.9 NNE 9 26 5 14 1012.2 1012.5 -
25/09:30pm 6.7 3.4 2.2 73 1.9 NNW 9 32 5 17 1012.3 1012.6 -
25/09:00pm 6.9 3.6 2.4 73 1.9 NNW 9 24 5 13 1012.3 1012.6 0.0
25/08:30pm 7.1 3.8 2.6 73 1.9 W 9 24 5 13 1012.3 1012.6 -
25/08:00pm 7.1 3.0 2.0 70 2.1 WSW 13 50 7 27 1012.1 1012.4 -
25/07:30pm 7.1 1.2 1.8 69 2.2 WSW 22 56 12 30 1012.0 1012.3 -
25/07:00pm 7.3 2.1 2.2 70 2.1 WSW 19 50 10 27 1011.9 1012.2 -
25/06:30pm 7.5 2.2 2.8 72 2.0 SW 20 41 11 22 1011.7 1012.0 -
25/06:00pm 7.5 2.2 2.8 72 2.0 WSW 20 43 11 23 1011.3 1011.6 -
25/05:36pm 7.5 0.5 1.8 67 2.4 SW 28 52 15 28 1011.0 1011.3 -
25/05:30pm 7.4 1.3 2.7 72 2.0 SW 24 48 13 26 1010.9 1011.2 -
25/05:03pm 7.5 0.8 3.4 75 1.8 SW 28 54 15 29 1010.7 1011.0 -
25/05:00pm 7.5 1.1 3.4 75 1.8 SW 26 54 14 29 1010.8 1011.1 -
25/04:30pm 7.6 0.6 2.1 68 2.3 SW 28 48 15 26 1010.6 1010.9 -
25/04:00pm 7.9 1.0 2.6 69 2.3 SW 28 54 15 29 1010.5 1010.8 -
25/03:30pm 7.8 1.0 3.1 72 2.0 SW 28 52 15 28 1010.4 1010.7 -
25/03:00pm 7.8 0.5 2.5 69 2.2 SW 30 54 16 29 1010.3 1010.6 -
25/02:31pm 7.5 0.1 3.9 78 1.6 SW 32 50 17 27 1010.4 1010.7 -
25/02:30pm 7.4 -0.2 3.8 78 1.6 SW 33 50 18 27 1010.4 1010.7 -
25/02:08pm 6.7 -0.3 4.0 83 1.2 SSW 30 52 16 28 1010.3 1010.6 -
25/02:05pm 7.0 0.3 3.8 80 1.4 SSW 28 52 15 28 1010.2 1010.5 -
25/02:02pm 8.0 1.7 4.0 76 1.8 SSW 26 52 14 28 1009.9 1010.3 -
25/02:00pm 8.0 1.7 4.0 76 1.8 SW 26 43 14 23 1010.1 1010.4 -
25/01:45pm 7.8 0.9 4.4 79 1.5 SW 30 48 16 26 1009.9 1010.3 -
25/01:30pm 7.6 0.3 4.4 80 1.4 SW 32 44 17 24 1009.9 1010.3 -
25/01:23pm 7.4 0.9 4.5 82 1.3 SW 28 52 15 28 1009.9 1010.3 1.0
25/01:00pm 6.8 0.3 4.8 87 0.9 SSW 28 41 15 22 1010.2 1010.5 1.0
25/12:30pm 6.9 0.0 4.6 85 1.0 SW 30 50 16 27 1010.3 1010.6 0.8
25/12:06pm 8.0 1.4 4.2 77 1.7 SW 28 54 15 29 1010.2 1010.5 0.6
25/12:00pm 8.7 3.3 4.5 75 1.9 SSW 22 39 12 21 1010.2 1010.5 0.6
25/11:30am 7.2 3.5 4.2 81 1.3 SW 13 33 7 18 1010.4 1010.7 0.6
25/11:00am 8.6 3.0 5.2 79 1.5 SSW 24 39 13 21 1010.3 1010.6 0.4
25/10:30am 8.9 3.2 4.7 75 1.9 SW 24 33 13 18 1010.2 1010.5 0.0
25/10:00am 8.9 3.2 5.1 77 1.7 SSW 24 48 13 26 1010.1 1010.4 0.0
25/09:30am 8.5 2.7 4.5 76 1.8 SSW 24 43 13 23 1009.9 1010.3 0.0
25/09:00am 7.4 2.4 4.7 83 1.2 SSW 20 32 11 17 1010.1 1010.4 1.6
25/08:30am 7.0 2.2 4.7 85 1.0 SSW 19 35 10 19 1009.6 1010.0 1.6
25/08:00am 6.8 1.5 4.8 87 0.9 SSW 22 39 12 21 1009.4 1009.8 1.6
25/07:30am 6.9 2.0 5.2 89 0.8 SW 20 32 11 17 1009.2 1009.5 1.6
25/07:00am 6.7 3.6 5.5 92 0.5 SSW 11 30 6 16 1008.9 1009.2 1.6
25/06:30am 6.3 3.5 5.1 92 0.5 W 9 26 5 14 1008.5 1008.8 1.6
25/06:00am 6.1 3.6 4.7 91 0.6 E 7 22 4 12 1008.2 1008.5 1.6
25/05:30am 6.2 3.6 4.4 88 0.8 N 7 20 4 11 1007.9 1008.2 1.4
25/05:00am 6.2 3.1 3.7 84 1.1 ENE 9 22 5 12 1007.8 1008.1 0.6
25/04:30am 6.0 3.3 3.5 84 1.1 NW 7 28 4 15 1007.8 1008.1 0.6
25/04:00am 6.2 3.4 3.0 80 1.4 NNW 7 24 4 13 1007.8 1008.1 0.2
25/03:30am 6.2 3.4 3.2 81 1.3 SSW 7 24 4 13 1007.7 1008.0 0.2
25/03:00am 5.9 3.3 3.2 83 1.1 ENE 6 24 3 13 1007.8 1008.1 0.2
25/02:30am 6.2 3.4 3.4 82 1.2 WNW 7 22 4 12 1007.7 1008.0 0.2
25/02:00am 6.3 3.5 3.3 81 1.3 N 7 26 4 14 1008.1 1008.4 0.2
25/01:30am 6.1 2.9 3.3 82 1.2 SE 9 19 5 10 1008.3 1008.6 0.2
25/01:00am 6.2 3.4 3.4 82 1.2 NNW 7 30 4 16 1008.3 1008.6 0.2
25/12:30am 6.3 3.1 3.3 81 1.3 ENE 9 19 5 10 1008.2 1008.5 0.2
25/12:00am 6.5 3.4 3.5 81 1.3 NNW 9 37 5 20 1008.4 1008.7 0.2
 
Date/Time
EST
Temp
°C
App
Temp
°C
Dew
Point
°C
Rel
Hum
%
Delta-T
°C
Wind Press
QNH
hPa
Press
MSL
hPa
Rain since
9am
mm
Dir  Spd
km/h
Gust
km/h
Spd
kts
Gust
kts
24/11:30pm 6.5 3.3 3.3 80 1.4 W 9 32 5 17 1008.7 1009.0 0.2
24/11:00pm 6.2 3.6 3.2 81 1.3 NE 6 17 3 9 1008.7 1009.0 0.2
24/10:30pm 6.2 3.6 3.2 81 1.3 NE 6 24 3 13 1008.8 1009.1 0.2
24/10:00pm 6.6 3.8 2.9 77 1.6 NNE 7 26 4 14 1009.1 1009.4 0.2
24/09:30pm 6.6 3.0 3.0 78 1.5 WSW 11 33 6 18 1009.2 1009.5 0.2
24/09:00pm 6.9 4.1 3.0 76 1.7 SSW 7 22 4 12 1009.2 1009.5 0.2
24/08:30pm 6.8 3.1 2.5 74 1.8 W 11 32 6 17 1009.1 1009.4 0.2

Other Formats:

Comma delimited format used in spreadsheet applications
http://www.bom.gov.au/fwo/IDT60801/IDT60801.95986.axf

JavaScript Object Notation format (JSON) in row-major order
http://www.bom.gov.au/fwo/IDT60801/IDT60801.95986.json